Time;durP1;ratioP1;P1;durP2;ratioP2;P2;SDS_P1;SDS_P2;PMS_P1;PMS_P2;Temp;Humidity;BMP_temperature;BMP_pressure;BME280_temperature;BME280_humidity;BME280_pressure;Samples;Min_cycle;Max_cycle;Signal;HPM_P1;HPM_P2
2022/09/03 00:00:23;;;;;;;13.40;7.75;;;;;;;16.89;57.52;99902.41;4986701;28;20050;-46
2022/09/03 00:03:02;;;;;;;13.82;7.32;;;;;;;16.86;57.67;99908.81;4990717;28;20459;-51
2022/09/03 00:05:54;;;;;;;10.82;6.75;;;;;;;16.86;58.10;99894.84;4989618;28;20046;-46
2022/09/03 00:08:37;;;;;;;13.13;7.57;;;;;;;16.85;58.35;99893.25;4991581;28;20046;-47
2022/09/03 00:11:34;;;;;;;14.25;7.45;;;;;;;16.85;58.46;99882.06;4987511;28;20034;-46
2022/09/03 00:14:10;;;;;;;12.73;7.80;;;;;;;16.86;58.29;99875.28;4974390;28;20049;-49
2022/09/03 00:17:14;;;;;;;11.15;6.53;;;;;;;16.88;58.57;99881.25;4989303;28;20467;-44
2022/09/03 00:20:02;;;;;;;17.90;8.65;;;;;;;16.85;58.48;99868.88;4989506;28;20057;-47
2022/09/03 00:22:37;;;;;;;11.27;7.03;;;;;;;16.83;58.55;99882.47;4991532;28;20093;-49
2022/09/03 00:25:10;;;;;;;11.35;6.72;;;;;;;16.82;59.25;99902.44;4990887;28;20042;-44
2022/09/03 00:27:39;;;;;;;12.05;7.63;;;;;;;16.79;59.17;99911.63;4990769;28;20493;-47
2022/09/03 00:30:12;;;;;;;12.95;7.63;;;;;;;16.79;59.42;99901.25;4989647;28;20042;-46
2022/09/03 00:32:51;;;;;;;13.77;8.55;;;;;;;16.82;59.29;99899.66;4992035;28;20050;-44
2022/09/03 00:35:33;;;;;;;14.98;9.07;;;;;;;16.83;59.52;99901.25;4986802;28;20051;-48
2022/09/03 00:38:21;;;;;;;16.90;9.25;;;;;;;16.83;59.48;99901.25;4990891;28;20047;-46
2022/09/03 00:41:10;;;;;;;17.98;9.63;;;;;;;16.82;59.50;99899.66;4988502;28;20422;-48
2022/09/03 00:44:28;;;;;;;16.88;10.23;;;;;;;16.80;59.75;99902.88;4992414;28;20172;-45
2022/09/03 00:47:36;;;;;;;13.85;9.00;;;;;;;16.78;60.01;99894.09;4991305;28;20038;-43
2022/09/03 00:50:42;;;;;;;18.08;10.00;;;;;;;16.74;60.13;99881.31;4992788;28;20045;-45
2022/09/03 00:53:53;;;;;;;17.90;10.82;;;;;;;16.67;60.09;99882.16;5009949;28;20131;-46
2022/09/03 00:57:14;;;;;;;17.80;11.02;;;;;;;16.66;60.18;99886.16;5014151;28;20078;-47
2022/09/03 01:00:05;;;;;;;14.98;8.80;;;;;;;16.66;60.05;99879.75;5010408;28;20181;-44
2022/09/03 01:03:30;;;;;;;12.85;7.78;;;;;;;16.64;60.13;99873.78;5005750;28;20073;-44
2022/09/03 01:06:34;;;;;;;12.27;7.50;;;;;;;16.62;60.13;99868.63;5014053;28;20137;-44
2022/09/03 01:09:46;;;;;;;11.20;6.63;;;;;;;16.61;60.32;99863.41;4981630;28;20174;-45
2022/09/03 01:12:58;;;;;;;7.68;5.53;;;;;;;16.60;60.30;99854.25;4997912;28;20092;-46
2022/09/03 01:16:02;;;;;;;8.67;5.27;;;;;;;16.63;60.39;99861.00;4985768;28;20126;-47
2022/09/03 01:18:42;;;;;;;9.52;5.22;;;;;;;16.61;60.47;99858.63;4995076;28;20096;-46
2022/09/03 01:21:27;;;;;;;10.07;5.75;;;;;;;16.61;60.54;99855.03;4995135;28;20046;-44
2022/09/03 01:24:18;;;;;;;9.85;6.10;;;;;;;16.58;60.83;99855.84;4993784;28;20376;-49
2022/09/03 01:27:14;;;;;;;9.50;6.20;;;;;;;16.54;61.17;99846.69;4990020;28;20093;-48
2022/09/03 01:30:04;;;;;;;10.02;5.40;;;;;;;16.53;61.47;99836.72;4987505;28;20121;-45
2022/09/03 01:33:00;;;;;;;9.73;5.22;;;;;;;16.51;61.69;99830.72;4991042;28;20135;-50
2022/09/03 01:35:56;;;;;;;11.98;5.93;;;;;;;16.51;61.88;99825.13;5011220;28;20125;-45
2022/09/03 01:38:54;;;;;;;7.22;4.70;;;;;;;16.49;62.19;99824.75;4995466;28;20109;-46
2022/09/03 01:42:14;;;;;;;11.25;5.05;;;;;;;16.48;62.33;99835.13;4991414;28;20045;-49
2022/09/03 01:45:31;;;;;;;7.15;4.80;;;;;;;16.49;62.37;99835.91;4993832;28;20124;-49
2022/09/03 01:48:35;;;;;;;9.98;5.78;;;;;;;16.48;62.56;99828.72;4991595;28;20070;-45
2022/09/03 01:51:24;;;;;;;11.45;5.07;;;;;;;16.45;62.69;99841.53;4996620;28;20120;-47
2022/09/03 01:58:32;;;;;;;8.80;4.68;;;;;;;16.36;63.04;99822.41;4991473;28;20069;-45
2022/09/03 02:01:34;;;;;;;8.10;4.97;;;;;;;16.32;63.38;99820.81;4988476;28;20089;-44
2022/09/03 02:04:26;;;;;;;9.97;5.63;;;;;;;16.30;63.49;99806.47;4972723;28;20097;-45
2022/09/03 02:07:13;;;;;;;7.97;5.75;;;;;;;16.27;63.89;99819.25;4993653;28;20129;-44
2022/09/03 02:14:11;;;;;;;7.00;3.90;;;;;;;16.22;64.30;99825.28;4992407;28;20064;-44
2022/09/03 02:17:00;;;;;;;7.55;4.03;;;;;;;16.21;64.76;99828.44;4983616;28;20058;-43
2022/09/03 02:19:47;;;;;;;6.55;3.88;;;;;;;16.20;64.94;99827.66;4988950;28;20055;-46
2022/09/03 02:22:34;;;;;;;3.85;3.03;;;;;;;16.21;65.31;99820.06;4988883;28;20133;-45
2022/09/03 02:25:28;;;;;;;4.55;3.33;;;;;;;16.20;65.60;99824.84;4997966;28;20121;-44
2022/09/03 02:28:15;;;;;;;4.50;2.47;;;;;;;16.19;65.72;99814.91;4993151;28;20505;-44
2022/09/03 02:31:03;;;;;;;3.55;2.45;;;;;;;16.19;65.92;99817.69;4992057;28;20050;-45
2022/09/03 02:33:51;;;;;;;4.82;2.60;;;;;;;16.20;66.15;99796.94;4992322;28;20057;-44
2022/09/03 02:36:42;;;;;;;3.53;1.90;;;;;;;16.18;66.48;99810.50;4996449;28;20571;-45
2022/09/03 02:39:29;;;;;;;6.80;3.05;;;;;;;16.13;66.90;99808.16;4980642;28;20733;-48
2022/09/03 02:42:17;;;;;;;6.60;3.42;;;;;;;16.10;67.38;99789.41;4970096;28;20453;-47
2022/09/03 02:45:18;;;;;;;7.00;3.60;;;;;;;16.10;67.76;99796.97;4967644;28;20050;-48
2022/09/03 02:48:09;;;;;;;10.13;4.35;;;;;;;16.06;68.19;99807.38;4972342;28;20042;-45
2022/09/03 02:50:56;;;;;;;14.43;4.90;;;;;;;16.05;68.69;99811.38;4970283;28;20089;-51
2022/09/03 02:53:23;;;;;;;7.55;5.25;;;;;;;16.01;69.19;99805.00;4968304;28;20177;-44
2022/09/03 02:55:49;;;;;;;5.60;2.88;;;;;;;15.97;69.69;99810.59;4974657;28;20635;-47
2022/09/03 02:58:16;;;;;;;4.65;2.60;;;;;;;15.94;70.07;99791.84;4971353;28;20054;-45
2022/09/03 03:16:32;;;;;;;2.58;1.40;;;;;;;15.81;71.22;99802.66;4972236;28;20078;-44
2022/09/03 03:19:19;;;;;;;5.35;1.55;;;;;;;15.80;71.85;99812.25;4982955;28;20103;-43
2022/09/03 03:22:06;;;;;;;4.85;1.55;;;;;;;15.80;72.18;99805.88;4985946;28;20057;-50
2022/09/03 03:24:33;;;;;;;3.53;1.52;;;;;;;15.78;72.44;99802.66;4987160;28;20088;-48
2022/09/03 03:27:00;;;;;;;4.65;1.65;;;;;;;15.74;72.92;99796.31;4986637;28;20038;-43
2022/09/03 03:29:28;;;;;;;3.90;1.67;;;;;;;15.70;73.15;99806.72;4975218;28;20678;-45
2022/09/03 03:31:54;;;;;;;5.45;1.60;;;;;;;15.68;73.43;99797.91;4988805;28;20076;-49
2022/09/03 03:34:21;;;;;;;3.95;1.60;;;;;;;15.69;73.54;99799.53;4978700;28;20223;-45
2022/09/03 03:36:48;;;;;;;5.32;2.03;;;;;;;15.71;73.70;99792.34;4986190;28;20121;-48
2022/09/03 03:39:15;;;;;;;2.03;1.67;;;;;;;15.67;73.90;99793.56;4985006;28;20054;-47
2022/09/03 03:41:42;;;;;;;7.30;2.20;;;;;;;15.62;74.11;99775.22;4986004;28;20572;-44
2022/09/03 03:44:09;;;;;;;5.88;1.98;;;;;;;15.62;74.33;99778.00;4985153;28;20377;-44
2022/09/03 03:46:38;;;;;;;2.47;1.80;;;;;;;15.61;74.43;99778.41;4988055;28;20042;-45
2022/09/03 03:49:07;;;;;;;3.10;1.40;;;;;;;15.59;74.40;99778.03;4982745;28;20260;-45
2022/09/03 03:51:34;;;;;;;3.28;1.58;;;;;;;15.57;74.83;99785.97;4989476;28;20176;-50
2022/09/03 03:54:03;;;;;;;3.13;1.33;;;;;;;15.59;75.04;99780.81;4985260;28;20065;-49
2022/09/03 03:56:32;;;;;;;2.78;1.33;;;;;;;15.57;75.15;99788.78;4985803;28;20368;-50
2022/09/03 03:58:59;;;;;;;4.68;2.40;;;;;;;15.53;75.51;99779.63;4984630;28;20055;-46
2022/09/03 04:01:27;;;;;;;3.80;1.95;;;;;;;15.51;75.61;99782.84;4978931;28;20045;-43
2022/09/03 04:03:55;;;;;;;2.88;2.20;;;;;;;15.52;75.92;99780.81;4980052;28;20053;-55
2022/09/03 04:06:22;;;;;;;7.43;2.60;;;;;;;15.51;76.08;99771.66;4981865;28;20046;-47
2022/09/03 04:08:49;;;;;;;5.10;2.60;;;;;;;15.45;76.43;99767.66;4984641;28;20070;-49
2022/09/03 04:11:21;;;;;;;5.45;2.75;;;;;;;15.43;76.50;99764.47;4986493;28;20539;-45
2022/09/03 04:13:52;;;;;;;8.75;3.45;;;;;;;15.45;76.83;99770.44;4981289;28;20181;-45
2022/09/03 04:16:22;;;;;;;5.78;3.58;;;;;;;15.44;77.12;99766.06;4983635;28;20058;-46
2022/09/03 04:19:02;;;;;;;6.68;2.70;;;;;;;15.44;77.23;99766.06;4984155;28;20120;-43
2022/09/03 04:21:39;;;;;;;4.55;2.78;;;;;;;15.44;77.36;99770.84;4986045;28;20497;-50
2022/09/03 04:24:05;;;;;;;5.93;2.58;;;;;;;15.43;77.56;99769.25;4979641;28;20121;-45
2022/09/03 04:41:27;;;;;;;5.18;2.88;;;;;;;15.36;78.52;99775.63;4980595;28;20524;-42
2022/09/03 04:43:56;;;;;;;5.85;3.67;;;;;;;15.38;78.96;99764.88;4981964;28;20050;-46
2022/09/03 04:46:32;;;;;;;6.18;3.65;;;;;;;15.39;79.19;99758.09;4982894;28;20079;-44
2022/09/03 04:49:00;;;;;;;11.10;4.05;;;;;;;15.38;79.29;99762.06;4962490;28;20508;-48
2022/09/03 04:51:28;;;;;;;6.95;4.50;;;;;;;15.36;79.70;99752.53;4986801;28;20049;-45
2022/09/03 04:53:59;;;;;;;7.75;4.22;;;;;;;15.35;80.05;99756.53;4981955;28;20127;-52
2022/09/03 04:56:29;;;;;;;8.50;4.47;;;;;;;15.33;80.45;99764.50;4984918;28;20053;-52
2022/09/03 04:59:01;;;;;;;6.80;4.32;;;;;;;15.34;80.40;99758.50;4983089;28;20046;-44
2022/09/03 05:01:30;;;;;;;5.18;4.22;;;;;;;15.33;80.60;99759.69;4982082;28;21838;-46
2022/09/03 05:03:58;;;;;;;5.88;4.40;;;;;;;15.35;80.78;99756.53;4984976;28;20046;-50
2022/09/03 05:06:25;;;;;;;3.78;3.20;;;;;;;15.32;80.80;99752.53;4983342;28;20042;-44
2022/09/03 05:08:54;;;;;;;4.25;2.63;;;;;;;15.31;81.08;99770.47;4979155;28;20119;-47
2022/09/03 05:11:22;;;;;;;2.13;1.88;;;;;;;15.31;80.86;99772.44;4984202;28;20046;-44
2022/09/03 05:13:51;;;;;;;2.63;1.40;;;;;;;15.30;80.64;99771.69;4985193;28;20487;-44
2022/09/03 05:16:19;;;;;;;3.20;1.35;;;;;;;15.27;80.52;99774.47;4974626;28;20770;-45
2022/09/03 05:18:46;;;;;;;2.50;1.10;;;;;;;15.22;80.10;99779.22;4983586;28;20708;-44
2022/09/03 05:21:15;;;;;;;1.52;0.95;;;;;;;15.13;80.07;99764.91;4976222;28;20046;-48
2022/09/03 05:23:44;;;;;;;1.10;0.88;;;;;;;15.06;80.52;99764.91;4984965;28;21342;-50
2022/09/03 05:26:19;;;;;;;4.03;1.52;;;;;;;15.05;80.49;99754.97;4980650;28;20041;-45
2022/09/03 05:28:47;;;;;;;1.52;1.15;;;;;;;15.02;80.54;99750.19;4979474;28;20212;-43
2022/09/03 05:31:17;;;;;;;1.38;0.95;;;;;;;15.03;80.70;99751.78;4982828;28;20073;-50
2022/09/03 05:33:49;;;;;;;1.77;1.30;;;;;;;15.03;80.90;99765.72;4983712;28;20131;-47
2022/09/03 05:36:17;;;;;;;;;;;;;;;14.98;81.11;99763.34;4977925;28;20065;-50
2022/09/03 05:38:46;;;;;;;1.63;1.27;;;;;;;15.00;80.58;99755.38;4966873;28;20012;-46
2022/09/03 05:41:17;;;;;;;1.77;0.93;;;;;;;14.96;80.49;99746.19;4985434;28;21335;-51
2022/09/03 05:43:50;;;;;;;1.83;1.20;;;;;;;14.95;80.83;99764.13;4979443;28;20050;-43
2022/09/03 05:46:18;;;;;;;3.20;1.35;;;;;;;14.94;80.84;99761.72;4979430;28;20704;-44
2022/09/03 05:48:45;;;;;;;5.38;1.30;;;;;;;14.92;81.17;99772.47;4987399;28;20065;-50
2022/09/03 05:51:17;;;;;;;5.22;1.35;;;;;;;14.91;81.42;99771.69;4982479;28;21120;-49
2022/09/03 05:53:47;;;;;;;1.13;0.90;;;;;;;14.92;81.43;99773.28;4983938;28;20061;-52
2022/09/03 05:56:16;;;;;;;1.75;1.00;;;;;;;14.96;81.61;99784.41;4978240;28;20400;-43
2022/09/03 05:58:49;;;;;;;3.08;1.40;;;;;;;14.97;81.43;99780.44;4988730;28;20112;-43
2022/09/03 06:01:23;;;;;;;4.53;1.30;;;;;;;14.95;81.64;99785.63;4984712;28;20089;-43
2022/09/03 06:03:57;;;;;;;1.77;1.02;;;;;;;14.93;81.79;99783.22;4988123;28;20140;-47
2022/09/03 06:06:25;;;;;;;1.98;1.20;;;;;;;14.93;82.16;99790.81;4985361;28;20450;-44
2022/09/03 06:08:54;;;;;;;2.90;1.08;;;;;;;14.91;82.35;99782.81;4987672;28;20053;-52
2022/09/03 06:11:22;;;;;;;1.67;1.38;;;;;;;14.93;82.42;99786.00;4986143;28;20104;-48
2022/09/03 06:13:49;;;;;;;2.00;1.00;;;;;;;14.94;82.41;99787.63;4985197;28;20073;-46
2022/09/03 06:16:16;;;;;;;1.70;1.25;;;;;;;14.93;82.57;99797.16;4992824;28;20099;-52
2022/09/03 06:18:52;;;;;;;1.13;1.02;;;;;;;14.93;82.46;99786.00;4969401;28;20114;-47
2022/09/03 06:21:21;;;;;;;2.90;1.30;;;;;;;14.90;82.71;99797.97;4982258;28;20042;-51
2022/09/03 06:23:55;;;;;;;2.42;0.90;;;;;;;14.89;83.00;99790.78;4981179;28;20137;-47
2022/09/03 06:26:27;;;;;;;0.80;0.80;;;;;;;14.90;82.86;99791.59;4989318;28;20049;-50
2022/09/03 06:28:55;;;;;;;2.78;1.00;;;;;;;14.87;82.89;99793.19;4988262;28;20046;-47
2022/09/03 06:31:23;;;;;;;0.85;0.85;;;;;;;14.92;83.08;99806.72;4995500;28;20495;-50
2022/09/03 06:33:51;;;;;;;1.35;0.98;;;;;;;14.95;83.00;99805.94;4991248;28;20044;-45
2022/09/03 06:36:19;;;;;;;2.92;1.17;;;;;;;14.95;83.00;99808.72;4989995;28;20795;-50
2022/09/03 06:38:46;;;;;;;0.88;0.82;;;;;;;14.98;82.92;99815.50;4986836;28;20318;-48
2022/09/03 06:45:05;;;;;;;3.45;1.10;;;;;;;14.95;82.85;99828.25;4992071;28;20165;-51
2022/09/03 06:51:24;;;;;;;3.63;0.80;;;;;;;14.91;82.98;99821.84;4974963;28;20954;-47
2022/09/03 06:54:28;;;;;;;1.52;1.33;;;;;;;14.90;83.12;99819.47;4990776;28;20073;-51
2022/09/03 06:57:14;;;;;;;3.13;0.80;;;;;;;14.87;83.23;99823.84;4984883;28;20054;-49
2022/09/03 06:59:42;;;;;;;1.33;0.80;;;;;;;14.85;83.17;99822.66;4974714;28;20136;-46
2022/09/03 07:02:09;;;;;;;0.70;0.70;;;;;;;14.84;83.12;99821.84;4986512;28;20504;-48
2022/09/03 07:08:33;;;;;;;2.03;0.80;;;;;;;14.86;82.91;99825.03;4985041;28;20050;-53
2022/09/03 07:11:09;;;;;;;1.85;0.90;;;;;;;14.83;82.97;99825.81;4991197;28;20030;-46
2022/09/03 07:13:45;;;;;;;0.70;0.55;;;;;;;14.82;82.91;99824.25;4984133;28;20057;-43
2022/09/03 07:16:34;;;;;;;1.52;1.00;;;;;;;14.80;83.26;99823.03;4986276;28;20488;-42
2022/09/03 07:19:03;;;;;;;1.30;0.50;;;;;;;14.75;83.23;99821.41;5009192;28;20042;-42
2022/09/03 07:21:32;;;;;;;0.98;0.52;;;;;;;14.73;83.02;99823.81;5013618;28;20479;-43
2022/09/03 07:27:50;;;;;;;3.42;1.10;;;;;;;14.74;82.81;99817.06;5008075;28;20069;-42
2022/09/03 07:30:37;;;;;;;1.80;0.70;;;;;;;14.73;82.78;99812.66;4999632;28;20141;-43
2022/09/03 07:33:24;;;;;;;3.45;1.50;;;;;;;14.71;82.78;99812.28;5010809;28;20075;-45
2022/09/03 07:36:15;;;;;;;3.15;2.80;;;;;;;14.71;83.19;99823.41;5013096;28;20122;-44
2022/09/03 07:39:03;;;;;;;3.35;2.53;;;;;;;14.78;83.02;99828.19;4987885;28;20050;-43
2022/09/03 07:46:28;;;;;;;5.70;1.77;;;;;;;14.85;82.81;99840.16;5006861;28;20049;-45
2022/09/03 07:48:57;;;;;;;3.33;1.98;;;;;;;14.85;82.82;99840.16;5012709;28;20443;-44
2022/09/03 07:51:29;;;;;;;7.60;2.00;;;;;;;14.87;82.71;99843.34;4994276;28;20046;-45
2022/09/03 07:53:58;;;;;;;7.13;2.03;;;;;;;14.81;82.68;99844.94;5009453;28;20037;-45
2022/09/03 07:56:26;;;;;;;1.60;1.13;;;;;;;14.73;82.85;99846.09;5007888;28;20030;-45
2022/09/03 07:58:55;;;;;;;2.03;1.13;;;;;;;14.64;82.92;99845.66;5011323;28;20046;-44
2022/09/03 08:01:23;;;;;;;1.30;1.00;;;;;;;14.57;83.17;99852.03;5010010;28;20069;-44
2022/09/03 08:03:54;;;;;;;2.60;0.77;;;;;;;14.49;83.25;99856.00;5009408;28;20053;-44
2022/09/03 08:06:58;;;;;;;1.13;0.77;;;;;;;14.44;83.44;99867.50;5007946;28;20519;-43
2022/09/03 08:09:25;;;;;;;1.52;0.60;;;;;;;14.40;83.45;99855.56;5009380;28;20054;-44
2022/09/03 08:11:52;;;;;;;0.73;0.70;;;;;;;14.39;83.42;99858.75;5011087;28;20044;-44
2022/09/03 08:14:19;;;;;;;1.05;0.70;;;;;;;14.37;83.49;99848.00;5005725;28;20893;-43
2022/09/03 08:16:46;;;;;;;2.80;0.80;;;;;;;14.36;83.60;99857.53;5003243;28;20531;-44
2022/09/03 08:19:14;;;;;;;3.20;0.70;;;;;;;14.36;83.51;99851.16;4983581;28;20551;-43
2022/09/03 08:25:23;;;;;;;3.15;1.10;;;;;;;14.37;83.60;99850.78;5004277;28;20041;-43
2022/09/03 08:28:27;;;;;;;4.35;1.05;;;;;;;14.36;83.75;99862.31;5003115;28;20034;-43
2022/09/03 08:31:20;;;;;;;2.10;1.30;;;;;;;14.32;83.46;99855.94;4980964;28;20073;-40
2022/09/03 08:34:09;;;;;;;3.15;1.42;;;;;;;14.34;83.77;99859.13;4985408;28;20471;-43
2022/09/03 08:36:57;;;;;;;2.35;1.40;;;;;;;14.36;83.62;99870.66;4986242;28;20124;-43
2022/09/03 08:44:05;;;;;;;1.45;0.90;;;;;;;14.27;83.67;99873.75;4975185;28;20022;-42
2022/09/03 08:46:55;;;;;;;0.68;0.63;;;;;;;14.19;83.20;99868.56;5006510;28;20080;-43
2022/09/03 08:49:46;;;;;;;0.70;0.70;;;;;;;14.14;83.43;99864.16;4988915;28;20045;-43
2022/09/03 08:56:30;;;;;;;1.20;0.73;;;;;;;14.21;83.46;99877.31;4980164;28;20066;-42
2022/09/03 08:59:00;;;;;;;3.42;0.68;;;;;;;14.22;83.40;99865.00;5007361;28;20116;-42
2022/09/03 09:01:27;;;;;;;4.53;2.40;;;;;;;14.24;83.58;99882.13;5009615;28;20439;-42
2022/09/03 09:04:16;;;;;;;3.63;0.73;;;;;;;14.24;83.57;99866.22;5004491;28;20042;-42
2022/09/03 09:06:49;;;;;;;1.17;0.68;;;;;;;14.27;83.71;99870.22;5009903;28;20053;-42
2022/09/03 09:09:47;;;;;;;1.25;0.70;;;;;;;14.29;83.39;99881.75;5009474;28;20069;-44
2022/09/03 09:12:32;;;;;;;0.52;0.50;;;;;;;14.26;83.41;99871.38;5009936;28;20487;-41
2022/09/03 09:15:21;;;;;;;1.10;0.57;;;;;;;14.23;83.61;99864.63;4992616;28;20575;-42
2022/09/03 09:17:54;;;;;;;0.60;0.60;;;;;;;14.26;83.51;99869.41;4992466;28;20034;-43
2022/09/03 09:20:23;;;;;;;0.80;0.77;;;;;;;14.30;83.47;99869.41;5009956;28;20065;-43
2022/09/03 09:23:05;;;;;;;0.95;0.75;;;;;;;14.30;83.24;99861.03;5006469;28;20069;-41
2022/09/03 09:25:38;;;;;;;2.03;0.70;;;;;;;14.28;83.37;99860.66;5002947;28;20108;-45
2022/09/03 09:28:17;;;;;;;0.55;0.47;;;;;;;14.28;83.44;99860.66;5009998;28;20046;-43
2022/09/03 09:30:47;;;;;;;1.67;0.60;;;;;;;14.32;83.40;99867.06;5010345;28;20054;-42
2022/09/03 09:33:19;;;;;;;0.85;0.70;;;;;;;14.36;83.26;99873.44;5008830;28;20038;-42
2022/09/03 09:35:46;;;;;;;;;;;;;;;14.36;83.08;99871.47;5004354;28;20049;-42
2022/09/03 09:38:13;;;;;;;7.40;1.63;;;;;;;14.35;82.96;99871.88;5005889;28;19921;-44
2022/09/03 09:40:48;;;;;;;1.65;0.80;;;;;;;14.37;83.21;99869.47;5006033;28;20050;-42
2022/09/03 09:43:20;;;;;;;1.75;0.50;;;;;;;14.33;83.25;99871.44;5010455;28;20104;-41
2022/09/03 09:45:49;;;;;;;4.00;0.77;;;;;;;14.34;83.42;99878.59;5005758;28;20377;-41
2022/09/03 09:48:21;;;;;;;0.95;0.50;;;;;;;14.35;83.29;99871.88;4984029;28;20459;-42
2022/09/03 09:50:48;;;;;;;3.53;0.57;;;;;;;14.36;83.38;99868.69;5012715;28;20041;-41
2022/09/03 09:53:20;;;;;;;2.10;0.50;;;;;;;14.34;83.18;99868.28;5013058;28;20496;-42
2022/09/03 09:55:54;;;;;;;1.50;1.35;;;;;;;14.33;83.23;99858.31;4987908;28;20078;-43
2022/09/03 09:58:23;;;;;;;1.17;0.50;;;;;;;14.32;83.03;99855.94;4996720;28;20100;-43
2022/09/03 10:00:55;;;;;;;0.70;0.70;;;;;;;14.37;83.04;99849.97;5013710;28;20173;-42
2022/09/03 10:03:26;;;;;;;3.05;1.10;;;;;;;14.42;82.93;99846.81;5013414;28;20050;-43
2022/09/03 10:06:52;;;;;;;0.82;0.80;;;;;;;14.48;82.89;99842.47;5000298;28;20377;-44
2022/09/03 10:08:53;;;;;;;2.05;0.75;;;;;;;14.49;82.73;99849.63;5012674;28;20049;-45
2022/09/03 10:11:24;;;;;;;3.00;0.90;;;;;;;14.47;82.83;99847.25;5013002;28;20104;-47
2022/09/03 10:13:53;;;;;;;2.30;0.80;;;;;;;14.50;82.80;99834.50;4988767;28;20053;-45
2022/09/03 10:16:35;;;;;;;1.23;0.73;;;;;;;14.51;83.14;99836.09;5009225;28;20089;-45
2022/09/03 10:19:10;;;;;;;1.98;1.08;;;;;;;14.53;83.15;99833.72;5012498;28;20045;-45
2022/09/03 10:21:54;;;;;;;6.53;1.73;;;;;;;14.54;83.19;99832.53;5012839;28;20046;-42
2022/09/03 10:24:27;;;;;;;1.65;0.80;;;;;;;14.56;83.24;99833.72;5012448;28;20050;-44
2022/09/03 10:26:54;;;;;;;3.75;1.45;;;;;;;14.58;83.21;99842.50;5012646;28;20038;-41
2022/09/03 10:29:28;;;;;;;13.93;2.05;;;;;;;14.55;83.33;99831.34;5005214;28;20046;-44
2022/09/03 10:32:10;;;;;;;1.58;0.80;;;;;;;14.55;83.47;99836.91;5012221;28;20050;-46
2022/09/03 10:34:37;;;;;;;;;;;;;;;14.55;83.59;99834.13;5010950;28;20046;-42
2022/09/03 10:37:41;;;;;;;1.98;0.75;;;;;;;14.59;83.33;99838.50;4995068;28;20334;-44
2022/09/03 10:40:30;;;;;;;1.52;0.85;;;;;;;14.62;83.29;99832.16;5012176;28;20549;-42
2022/09/03 10:43:44;;;;;;;0.93;0.93;;;;;;;14.64;83.37;99834.53;5012523;28;20060;-44
2022/09/03 10:46:15;;;;;;;0.80;0.55;;;;;;;14.59;83.21;99843.28;4981570;28;20039;-44
2022/09/03 10:49:01;;;;;;;0.90;0.88;;;;;;;14.57;83.43;99837.31;5009557;28;20045;-42
2022/09/03 10:51:34;;;;;;;3.05;0.85;;;;;;;14.56;83.46;99835.72;5011305;28;20093;-48
2022/09/03 10:58:06;;;;;;;0.60;0.35;;;;;;;14.53;83.03;99834.50;5011666;28;20064;-43
2022/09/03 11:04:45;;;;;;;5.03;1.00;;;;;;;14.55;82.83;99831.34;5009755;28;20038;-49
2022/09/03 11:07:16;;;;;;;3.50;1.25;;;;;;;14.52;82.86;99832.13;4978785;28;20061;-42
2022/09/03 11:13:42;;;;;;;2.55;0.85;;;;;;;14.44;83.47;99814.59;5015623;28;20042;-43
2022/09/03 11:16:19;;;;;;;1.40;0.90;;;;;;;14.44;83.58;99820.16;4993959;28;20139;-44
2022/09/03 11:18:50;;;;;;;1.15;0.70;;;;;;;14.46;nan;99816.97;5014341;28;20068;-43
2022/09/03 11:21:40;;;;;;;2.28;0.50;;;;;;;14.45;83.78;99819.00;4997747;28;20046;-43
2022/09/03 11:24:32;;;;;;;0.60;0.60;;;;;;;14.47;84.19;99818.59;5020439;28;20048;-42
2022/09/03 11:27:31;;;;;;;1.08;0.55;;;;;;;14.44;84.09;99817.38;4995798;28;20058;-44
2022/09/03 11:30:56;;;;;;;3.15;0.88;;;;;;;14.46;84.24;99822.53;4994997;28;20085;-43
2022/09/03 11:34:37;;;;;;;1.90;0.65;;;;;;;14.43;84.24;99810.22;5008413;28;20046;-45
2022/09/03 11:37:41;;;;;;;1.08;0.60;;;;;;;14.45;84.33;99804.25;5007989;28;20096;-45
2022/09/03 11:40:17;;;;;;;1.38;0.52;;;;;;;14.43;84.58;99801.06;4995060;28;20046;-46
2022/09/03 11:42:44;;;;;;;1.80;0.80;;;;;;;14.44;85.08;99800.69;5011009;28;20103;-44
2022/09/03 11:45:25;;;;;;;1.50;0.63;;;;;;;14.47;85.03;99796.31;5012906;28;20046;-43
2022/09/03 11:52:08;;;;;;;0.82;0.73;;;;;;;14.42;85.25;99788.34;5008929;28;20037;-45
2022/09/03 11:54:55;;;;;;;1.40;1.02;;;;;;;14.39;85.67;99792.72;5005483;28;20133;-45
2022/09/03 11:57:44;;;;;;;1.73;0.75;;;;;;;14.35;85.76;99785.53;5014223;28;20038;-46
2022/09/03 12:05:19;;;;;;;2.33;1.70;;;;;;;14.28;86.21;99788.25;5013923;28;20038;-44
2022/09/03 12:08:46;;;;;;;2.10;1.20;;;;;;;14.30;86.39;99789.47;5013169;28;20050;-45
2022/09/03 12:16:26;;;;;;;3.60;1.90;;;;;;;14.38;86.83;99770.81;5012224;28;20054;-45
2022/09/03 12:19:27;;;;;;;1.88;1.10;;;;;;;14.39;86.99;99772.41;5012798;28;20054;-38
2022/09/03 12:30:16;;;;;;;4.40;2.05;;;;;;;14.41;87.51;99756.91;5011963;28;20069;-48
2022/09/03 12:32:46;;;;;;;5.22;2.30;;;;;;;14.40;87.67;99749.72;5014010;28;20038;-44
2022/09/03 12:35:16;;;;;;;4.30;1.92;;;;;;;14.40;87.97;99752.50;5014028;28;20046;-44
2022/09/03 12:38:03;;;;;;;4.10;2.47;;;;;;;14.43;88.18;99756.50;5013473;28;20514;-44
2022/09/03 12:44:25;;;;;;;5.60;2.63;;;;;;;14.47;88.45;99744.19;5009325;28;20084;-44
2022/09/03 12:47:23;;;;;;;5.13;2.80;;;;;;;14.45;88.73;99748.56;5004543;28;20121;-45
2022/09/03 12:50:26;;;;;;;12.88;5.80;;;;;;;14.44;88.81;99744.16;5013731;28;20049;-47
2022/09/03 12:53:25;;;;;;;9.27;5.07;;;;;;;14.42;89.24;99755.72;4997178;28;20046;-44
2022/09/03 12:56:14;;;;;;;12.23;5.70;;;;;;;14.38;89.32;99754.09;4995088;28;20125;-44
2022/09/03 12:59:10;;;;;;;8.23;4.80;;;;;;;14.32;89.93;99750.13;4998582;28;20050;-46
2022/09/03 13:02:03;;;;;;;9.48;4.13;;;;;;;14.33;90.06;99757.28;4998932;28;20061;-44
2022/09/03 13:04:52;;;;;;;9.05;4.43;;;;;;;14.36;90.27;99748.13;5004538;28;20042;-44
2022/09/03 13:07:40;;;;;;;11.40;4.90;;;;;;;14.40;90.50;99743.38;5004027;28;20051;-44
2022/09/03 13:10:34;;;;;;;11.80;3.67;;;;;;;14.42;91.04;99743.78;5003849;28;20496;-43
2022/09/03 13:13:28;;;;;;;8.80;3.58;;;;;;;14.41;91.07;99745.75;5017102;28;20057;-45
2022/09/03 13:16:34;;;;;;;17.50;5.15;;;;;;;14.44;91.30;99741.38;5016455;28;20268;-44
2022/09/03 13:19:24;;;;;;;12.38;4.72;;;;;;;14.47;91.52;99746.16;5010477;28;20045;-43
2022/09/03 13:22:26;;;;;;;16.77;5.63;;;;;;;14.49;91.48;99746.56;5017243;28;20112;-44
2022/09/03 13:25:33;;;;;;;12.50;5.25;;;;;;;14.51;91.48;99747.75;5013404;28;20133;-45
2022/09/03 13:28:38;;;;;;;7.25;3.60;;;;;;;14.53;91.89;99745.38;5014141;28;20045;-44
2022/09/03 13:31:43;;;;;;;14.80;5.60;;;;;;;14.54;91.87;99746.16;4990241;28;20111;-42
2022/09/03 13:43:02;;;;;;;8.35;3.92;;;;;;;14.60;92.69;99730.66;5009950;28;20038;-41
2022/09/03 13:45:56;;;;;;;9.98;4.00;;;;;;;14.57;92.64;99729.47;5013629;28;20045;-42
2022/09/03 13:52:01;;;;;;;8.77;2.60;;;;;;;14.60;93.14;99733.47;5015418;28;20092;-42
2022/09/03 13:55:01;;;;;;;14.85;3.55;;;;;;;14.61;93.50;99737.84;5014018;28;20188;-41
2022/09/03 13:57:55;;;;;;;8.73;3.13;;;;;;;14.60;93.36;99725.09;5011594;28;20164;-45
2022/09/03 14:01:22;;;;;;;11.05;3.35;;;;;;;14.62;93.87;99726.28;5014045;28;20132;-46
2022/09/03 14:04:58;;;;;;;13.45;3.38;;;;;;;14.67;94.10;99721.53;5014542;28;20116;-44
2022/09/03 14:07:56;;;;;;;11.48;3.13;;;;;;;14.68;94.49;99723.91;5006521;28;20137;-43
2022/09/03 14:10:59;;;;;;;10.10;3.88;;;;;;;14.71;94.57;99720.34;5011302;28;20128;-43
2022/09/03 14:13:46;;;;;;;11.38;3.30;;;;;;;14.74;94.69;99721.53;5015263;28;20042;-44
2022/09/03 14:16:58;;;;;;;11.00;4.53;;;;;;;14.75;94.84;99707.19;5015690;28;20181;-42
2022/09/03 14:20:05;;;;;;;10.60;3.13;;;;;;;14.77;94.70;99715.97;5007862;28;20464;-45
2022/09/03 14:23:07;;;;;;;12.48;4.00;;;;;;;14.77;94.55;99707.59;5015139;28;20034;-43
2022/09/03 14:30:17;;;;;;;15.02;3.60;;;;;;;14.79;94.78;99702.41;4989627;28;20046;-45
2022/09/03 14:33:04;;;;;;;13.13;3.90;;;;;;;14.81;94.92;99699.22;4989277;28;20046;-47
2022/09/03 14:36:16;;;;;;;17.00;4.85;;;;;;;14.85;94.92;99698.03;4977082;28;20114;-42
2022/09/03 14:39:27;;;;;;;9.90;3.75;;;;;;;14.85;95.20;99697.25;4977000;28;20612;-43
2022/09/03 14:42:38;;;;;;;11.68;3.88;;;;;;;14.82;95.29;99696.06;5000262;28;20053;-43
2022/09/03 14:49:44;;;;;;;16.45;4.70;;;;;;;14.79;95.67;99685.72;4978231;28;20047;-43